Time;durP1;ratioP1;P1;durP2;ratioP2;P2;SDS_P1;SDS_P2;PMS_P1;PMS_P2;Temp;Humidity;BMP_temperature;BMP_pressure;BME280_temperature;BME280_humidity;BME280_pressure;Samples;Min_cycle;Max_cycle;Signal;HPM_P1;HPM_P2
2023/12/30 00:01:35;;;;;;;12.45;2.42;;;8.80;99.90;;;;;;5115892;28;20464;-69
2023/12/30 00:04:00;;;;;;;17.33;2.47;;;8.80;99.90;;;;;;5116003;28;20039;-68
2023/12/30 00:06:26;;;;;;;14.55;2.33;;;8.80;99.90;;;;;;5115814;28;20038;-69
2023/12/30 00:08:52;;;;;;;13.35;2.53;;;8.80;99.90;;;;;;5108120;28;20074;-68
2023/12/30 00:11:17;;;;;;;18.45;3.50;;;8.80;99.90;;;;;;5116012;28;20024;-69
2023/12/30 00:13:43;;;;;;;14.90;2.75;;;8.70;99.90;;;;;;5108834;28;20024;-69
2023/12/30 00:16:10;;;;;;;15.32;3.00;;;8.80;99.90;;;;;;5115339;28;20036;-69
2023/12/30 00:18:36;;;;;;;14.95;2.47;;;8.80;99.90;;;;;;5115745;28;20107;-68
2023/12/30 00:21:02;;;;;;;18.10;2.55;;;8.70;99.90;;;;;;5115799;28;20041;-69
2023/12/30 00:23:28;;;;;;;12.02;2.75;;;8.80;99.90;;;;;;5114539;28;20036;-68
2023/12/30 00:25:54;;;;;;;15.02;3.55;;;8.80;99.90;;;;;;5116185;28;20020;-69
2023/12/30 00:28:21;;;;;;;12.02;2.70;;;8.80;99.90;;;;;;5115488;28;20400;-69
2023/12/30 00:30:47;;;;;;;14.25;3.28;;;8.80;99.90;;;;;;5115681;28;20027;-68
2023/12/30 00:33:12;;;;;;;13.05;2.78;;;8.80;99.90;;;;;;5116472;28;20437;-69
2023/12/30 00:35:38;;;;;;;12.93;2.33;;;8.80;99.90;;;;;;5113907;28;20031;-68
2023/12/30 00:38:03;;;;;;;16.05;3.33;;;8.80;99.90;;;;;;5115505;28;20109;-68
2023/12/30 00:40:29;;;;;;;15.18;2.53;;;8.80;99.90;;;;;;5115843;28;20028;-68
2023/12/30 00:42:54;;;;;;;12.43;2.50;;;8.80;99.90;;;;;;5115784;28;20035;-69
2023/12/30 00:45:20;;;;;;;14.77;2.67;;;8.80;99.90;;;;;;5114345;28;20042;-69
2023/12/30 00:47:45;;;;;;;13.73;2.72;;;8.70;99.90;;;;;;5115639;28;20411;-68
2023/12/30 00:50:11;;;;;;;12.68;2.55;;;8.70;99.90;;;;;;5115227;28;20469;-68
2023/12/30 00:52:37;;;;;;;15.90;2.55;;;8.70;99.90;;;;;;5115586;28;20108;-68
2023/12/30 00:55:03;;;;;;;13.20;2.50;;;8.60;99.90;;;;;;5092646;28;20047;-69
2023/12/30 00:57:28;;;;;;;13.73;2.50;;;8.60;99.90;;;;;;5077252;28;20032;-69
2023/12/30 00:59:54;;;;;;;11.90;2.85;;;8.60;99.90;;;;;;5094546;28;20055;-68
2023/12/30 01:02:19;;;;;;;16.80;2.90;;;8.60;99.90;;;;;;5106078;28;20087;-68
2023/12/30 01:04:45;;;;;;;13.52;2.63;;;8.60;99.90;;;;;;5114619;28;20073;-68
2023/12/30 01:07:10;;;;;;;12.05;2.65;;;8.50;99.90;;;;;;5102677;28;20036;-68
2023/12/30 01:09:36;;;;;;;12.85;2.33;;;8.50;99.90;;;;;;5115132;28;20016;-68
2023/12/30 01:12:01;;;;;;;13.77;2.70;;;8.60;99.90;;;;;;5113315;28;20032;-68
2023/12/30 01:14:27;;;;;;;19.42;3.03;;;8.50;99.90;;;;;;5114947;28;20031;-69
2023/12/30 01:16:52;;;;;;;22.30;3.35;;;8.50;99.90;;;;;;5114889;28;20469;-68
2023/12/30 01:19:28;;;;;;;12.43;2.35;;;8.50;99.90;;;;;;5113595;28;20023;-69
2023/12/30 01:21:54;;;;;;;11.80;2.38;;;8.50;99.90;;;;;;5094444;28;20032;-69
2023/12/30 01:24:19;;;;;;;20.45;3.50;;;8.50;99.90;;;;;;5094128;28;20024;-69
2023/12/30 01:26:45;;;;;;;16.88;3.03;;;8.50;99.90;;;;;;5094129;28;20028;-68
2023/12/30 01:29:11;;;;;;;13.77;3.30;;;8.50;99.90;;;;;;5098980;28;20051;-68
2023/12/30 01:31:36;;;;;;;15.55;3.08;;;8.40;99.90;;;;;;5114315;28;20023;-69
2023/12/30 01:34:02;;;;;;;14.98;2.92;;;8.40;99.90;;;;;;5112517;28;20024;-68
2023/12/30 01:36:28;;;;;;;15.20;2.80;;;8.40;99.90;;;;;;5114010;28;20031;-69
2023/12/30 01:38:53;;;;;;;11.27;2.95;;;8.40;99.90;;;;;;5114009;28;20047;-69
2023/12/30 01:41:19;;;;;;;13.18;3.17;;;8.40;99.90;;;;;;5113094;28;20468;-69
2023/12/30 01:43:45;;;;;;;18.02;3.30;;;8.40;99.90;;;;;;5111577;28;20027;-69
2023/12/30 01:46:12;;;;;;;21.42;2.90;;;8.40;99.90;;;;;;5111903;28;20123;-68
2023/12/30 01:48:38;;;;;;;14.60;2.85;;;8.40;99.90;;;;;;5112567;28;20042;-68
2023/12/30 01:51:07;;;;;;;17.67;4.10;;;8.40;99.90;;;;;;5114273;28;20425;-69
2023/12/30 01:53:35;;;;;;;15.65;2.88;;;8.40;99.90;;;;;;5114106;28;20024;-68
2023/12/30 01:56:01;;;;;;;16.92;2.92;;;8.40;99.90;;;;;;5113926;28;20039;-68
2023/12/30 01:58:27;;;;;;;17.38;2.60;;;8.50;99.90;;;;;;5114178;28;20028;-68
2023/12/30 02:00:55;;;;;;;17.88;3.22;;;8.50;99.90;;;;;;5114115;28;20026;-69
2023/12/30 02:03:21;;;;;;;16.73;3.13;;;8.50;99.90;;;;;;5113952;28;20082;-68
2023/12/30 02:05:47;;;;;;;15.48;2.95;;;8.50;99.90;;;;;;5109180;28;20517;-68
2023/12/30 02:08:14;;;;;;;15.15;3.22;;;8.50;99.90;;;;;;5114030;28;20156;-69
2023/12/30 02:10:40;;;;;;;17.17;2.60;;;8.50;99.90;;;;;;5113888;28;20032;-69
2023/12/30 02:13:06;;;;;;;15.00;3.10;;;8.50;99.90;;;;;;5113750;28;20541;-68
2023/12/30 02:15:32;;;;;;;16.45;3.05;;;8.50;99.90;;;;;;5113621;28;20027;-68
2023/12/30 02:17:58;;;;;;;15.30;3.22;;;8.50;99.90;;;;;;5113308;28;20047;-68
2023/12/30 02:20:24;;;;;;;16.17;3.92;;;8.50;99.90;;;;;;5104684;28;20032;-69
2023/12/30 02:22:50;;;;;;;23.92;3.97;;;8.60;99.90;;;;;;5093447;28;20032;-68
2023/12/30 02:25:16;;;;;;;16.35;3.08;;;8.60;99.90;;;;;;5092994;28;20020;-69
2023/12/30 02:27:43;;;;;;;14.98;2.97;;;8.60;99.90;;;;;;5110507;28;20047;-69
2023/12/30 02:30:09;;;;;;;18.83;3.00;;;8.60;99.90;;;;;;5113296;28;20792;-69
2023/12/30 02:32:34;;;;;;;15.70;2.90;;;8.70;99.90;;;;;;5112815;28;20059;-69
2023/12/30 02:35:00;;;;;;;18.40;3.30;;;8.60;99.90;;;;;;5092873;28;20063;-69
2023/12/30 02:37:25;;;;;;;17.85;2.60;;;8.60;99.90;;;;;;5111311;28;20118;-69
2023/12/30 02:39:51;;;;;;;14.30;2.65;;;8.60;99.90;;;;;;5113024;28;20465;-69
2023/12/30 02:42:16;;;;;;;15.43;2.42;;;8.60;99.90;;;;;;5113102;28;20442;-69
2023/12/30 02:44:42;;;;;;;15.93;2.70;;;8.60;99.90;;;;;;5112653;28;20028;-69
2023/12/30 02:47:07;;;;;;;11.95;2.67;;;8.70;99.90;;;;;;5111048;28;20461;-69
2023/12/30 02:49:34;;;;;;;21.27;3.65;;;8.70;99.90;;;;;;5113395;28;20027;-68
2023/12/30 02:52:00;;;;;;;16.00;3.13;;;8.70;99.90;;;;;;5111281;28;20031;-69
2023/12/30 02:54:27;;;;;;;15.98;3.08;;;8.70;99.90;;;;;;5113203;28;20028;-69
2023/12/30 02:56:52;;;;;;;22.27;3.42;;;8.80;99.90;;;;;;5111941;28;20096;-69
2023/12/30 02:59:18;;;;;;;18.02;3.05;;;8.80;99.90;;;;;;5109516;28;20473;-69
2023/12/30 03:01:43;;;;;;;20.70;3.33;;;8.80;99.90;;;;;;5098691;28;20036;-69
2023/12/30 03:04:09;;;;;;;16.48;3.40;;;8.80;99.90;;;;;;5092811;28;20454;-68
2023/12/30 03:06:35;;;;;;;11.77;2.80;;;8.80;99.90;;;;;;5092491;28;20032;-68
2023/12/30 03:09:01;;;;;;;15.85;2.63;;;8.80;99.90;;;;;;5092372;28;20036;-68
2023/12/30 03:11:27;;;;;;;17.15;2.58;;;8.80;99.90;;;;;;5111427;28;20027;-68
2023/12/30 03:13:52;;;;;;;17.77;2.72;;;8.70;99.90;;;;;;5112505;28;20461;-69
2023/12/30 03:16:18;;;;;;;15.85;3.00;;;8.70;99.90;;;;;;5110994;28;20067;-69
2023/12/30 03:18:44;;;;;;;19.25;3.67;;;8.70;99.90;;;;;;5112547;28;20024;-70
2023/12/30 03:21:14;;;;;;;22.45;3.67;;;8.70;99.90;;;;;;5106059;28;20101;-68
2023/12/30 03:23:40;;;;;;;21.48;2.80;;;8.70;99.90;;;;;;5105389;28;20161;-68
2023/12/30 03:26:08;;;;;;;13.30;3.22;;;8.60;99.90;;;;;;5111691;28;20110;-69
2023/12/30 03:28:34;;;;;;;13.57;2.90;;;8.60;99.90;;;;;;5112087;28;20026;-68
2023/12/30 03:30:59;;;;;;;14.13;2.80;;;8.60;99.90;;;;;;5112182;28;20027;-69
2023/12/30 03:33:25;;;;;;;12.52;2.97;;;8.60;99.90;;;;;;5112161;28;20027;-69
2023/12/30 03:35:51;;;;;;;17.40;3.08;;;8.50;99.90;;;;;;5112124;28;20469;-68
2023/12/30 03:38:17;;;;;;;18.38;2.92;;;8.50;99.90;;;;;;5111871;28;20028;-68
2023/12/30 03:40:42;;;;;;;14.23;3.17;;;8.50;99.90;;;;;;5110536;28;20023;-68
2023/12/30 03:43:08;;;;;;;15.73;2.95;;;8.50;99.90;;;;;;5108039;28;20031;-69
2023/12/30 03:45:33;;;;;;;17.98;2.90;;;8.50;99.90;;;;;;5112125;28;20020;-69
2023/12/30 03:48:00;;;;;;;19.75;3.00;;;8.50;99.90;;;;;;5112046;28;20907;-68
2023/12/30 03:50:25;;;;;;;16.60;2.80;;;8.60;99.90;;;;;;5112114;28;20035;-68
2023/12/30 03:52:51;;;;;;;16.13;3.00;;;8.60;99.90;;;;;;5112563;28;20024;-68
2023/12/30 03:55:17;;;;;;;17.65;2.88;;;8.70;99.90;;;;;;5112078;28;20422;-69
2023/12/30 03:57:43;;;;;;;21.33;3.58;;;8.70;99.90;;;;;;5111115;28;20070;-69
2023/12/30 04:00:09;;;;;;;14.77;2.67;;;8.70;99.90;;;;;;5108619;28;20077;-68
2023/12/30 04:02:34;;;;;;;12.02;2.25;;;8.70;99.90;;;;;;5111918;28;20046;-68
2023/12/30 04:05:00;;;;;;;14.43;3.13;;;8.60;99.90;;;;;;5110898;28;20036;-68
2023/12/30 04:07:25;;;;;;;18.95;2.63;;;8.70;99.90;;;;;;5112021;28;20051;-68
2023/12/30 04:09:51;;;;;;;17.83;3.00;;;8.70;99.90;;;;;;5112103;28;20031;-69
2023/12/30 04:12:16;;;;;;;12.35;2.53;;;8.70;99.90;;;;;;5111497;28;20024;-69
2023/12/30 04:14:42;;;;;;;18.95;2.95;;;8.70;99.90;;;;;;5112035;28;20376;-69
2023/12/30 04:17:07;;;;;;;12.85;3.17;;;8.60;99.90;;;;;;5110634;28;20032;-68
2023/12/30 04:19:33;;;;;;;17.60;3.45;;;8.60;99.90;;;;;;5110999;28;20028;-69
2023/12/30 04:21:58;;;;;;;17.30;2.95;;;8.60;99.90;;;;;;5106866;28;20103;-70
2023/12/30 04:24:24;;;;;;;14.90;2.33;;;8.60;99.90;;;;;;5091812;28;20020;-68
2023/12/30 04:26:52;;;;;;;10.73;2.60;;;8.60;99.90;;;;;;5091655;28;20136;-69
2023/12/30 04:29:17;;;;;;;17.80;2.60;;;8.50;99.90;;;;;;5094094;28;20039;-69
2023/12/30 04:31:43;;;;;;;16.05;2.53;;;8.50;99.90;;;;;;5095565;28;20362;-69
2023/12/30 04:34:09;;;;;;;18.92;3.53;;;8.50;99.90;;;;;;5077406;28;20074;-69
2023/12/30 04:36:35;;;;;;;17.52;3.40;;;8.50;99.90;;;;;;5095608;28;20073;-68
2023/12/30 04:39:01;;;;;;;13.77;2.65;;;8.40;99.90;;;;;;5096725;28;20031;-68
2023/12/30 04:41:27;;;;;;;17.00;2.55;;;8.40;99.90;;;;;;5102270;28;20103;-68
2023/12/30 04:43:54;;;;;;;14.05;2.72;;;8.40;99.90;;;;;;5114106;28;20434;-68
2023/12/30 04:46:20;;;;;;;18.25;3.05;;;8.30;99.90;;;;;;5115314;28;20035;-68
2023/12/30 04:48:45;;;;;;;17.17;2.67;;;8.30;99.90;;;;;;5115280;28;20376;-69
2023/12/30 04:51:11;;;;;;;13.68;2.60;;;8.30;99.90;;;;;;5115598;28;20084;-67
2023/12/30 04:53:36;;;;;;;18.30;2.67;;;8.30;99.90;;;;;;5115402;28;20031;-67
2023/12/30 04:56:02;;;;;;;18.58;3.10;;;8.20;99.90;;;;;;5113267;28;20030;-69
2023/12/30 04:58:28;;;;;;;18.10;3.00;;;8.20;99.90;;;;;;5114681;28;20502;-68
2023/12/30 05:00:54;;;;;;;15.93;3.20;;;8.20;99.90;;;;;;5114988;28;20055;-69
2023/12/30 05:03:19;;;;;;;17.65;3.40;;;8.20;99.90;;;;;;5115469;28;20138;-68
2023/12/30 05:05:45;;;;;;;17.23;2.63;;;8.10;99.90;;;;;;5095640;28;20024;-68
2023/12/30 05:08:10;;;;;;;16.10;3.25;;;8.10;99.90;;;;;;5094823;28;20078;-69
2023/12/30 05:10:36;;;;;;;13.93;3.10;;;8.10;99.90;;;;;;5103428;28;20050;-70
2023/12/30 05:13:01;;;;;;;16.92;2.75;;;8.00;99.90;;;;;;5097124;28;20119;-68
2023/12/30 05:15:27;;;;;;;13.70;2.85;;;8.00;99.90;;;;;;5115320;28;20023;-69
2023/12/30 05:17:56;;;;;;;12.05;2.63;;;8.00;99.90;;;;;;5115339;28;20020;-69
2023/12/30 05:20:22;;;;;;;16.80;2.88;;;8.00;99.90;;;;;;5115196;28;20035;-69
2023/12/30 05:22:47;;;;;;;7.18;2.60;;;8.10;99.90;;;;;;5111022;28;20032;-69
2023/12/30 05:25:13;;;;;;;14.93;2.55;;;8.10;99.90;;;;;;5094025;28;20031;-69
2023/12/30 05:27:39;;;;;;;16.15;2.58;;;8.10;99.90;;;;;;5111079;28;20046;-68
2023/12/30 05:30:08;;;;;;;18.30;2.90;;;8.10;99.90;;;;;;5114355;28;20102;-69
2023/12/30 05:32:34;;;;;;;17.02;2.75;;;8.10;99.90;;;;;;5115268;28;20122;-68
2023/12/30 05:35:00;;;;;;;14.00;2.83;;;8.10;99.90;;;;;;5114879;28;20028;-69
2023/12/30 05:37:25;;;;;;;10.82;2.13;;;8.10;99.90;;;;;;5114839;28;20085;-69
2023/12/30 05:39:51;;;;;;;14.77;2.45;;;8.10;99.90;;;;;;5111948;28;20039;-68
2023/12/30 05:42:17;;;;;;;14.18;2.95;;;8.10;99.90;;;;;;5114689;28;20028;-68
2023/12/30 05:44:42;;;;;;;13.77;2.38;;;8.10;99.90;;;;;;5096465;28;20027;-69
2023/12/30 05:47:08;;;;;;;14.13;2.65;;;8.10;99.90;;;;;;5114370;28;20046;-68
2023/12/30 05:49:36;;;;;;;13.07;2.40;;;8.10;99.90;;;;;;5113678;28;20521;-69
2023/12/30 05:52:02;;;;;;;14.07;2.92;;;8.10;99.90;;;;;;5096211;28;20032;-69
2023/12/30 05:54:28;;;;;;;18.00;2.78;;;8.10;99.90;;;;;;5092409;28;20385;-68
2023/12/30 05:56:54;;;;;;;17.40;2.70;;;8.10;99.90;;;;;;5093684;28;20378;-68
2023/12/30 05:59:19;;;;;;;16.40;2.25;;;8.10;99.90;;;;;;5094076;28;20020;-68
2023/12/30 06:01:46;;;;;;;13.65;2.33;;;8.10;99.90;;;;;;5093655;28;20028;-67
2023/12/30 06:04:13;;;;;;;17.55;2.80;;;8.10;99.90;;;;;;5094008;28;20020;-68
2023/12/30 06:06:39;;;;;;;17.58;2.83;;;8.10;99.90;;;;;;5094161;28;20473;-68
2023/12/30 06:09:05;;;;;;;15.07;2.42;;;8.10;99.90;;;;;;5093606;28;20111;-68
2023/12/30 06:11:30;;;;;;;14.13;2.90;;;8.10;99.90;;;;;;5103451;28;20042;-68
2023/12/30 06:13:56;;;;;;;14.77;2.60;;;8.10;99.90;;;;;;5114250;28;20047;-68
2023/12/30 06:16:22;;;;;;;14.63;2.22;;;8.10;99.90;;;;;;5113893;28;20066;-68
2023/12/30 06:18:47;;;;;;;17.70;2.67;;;8.10;99.90;;;;;;5114363;28;20027;-68
2023/12/30 06:21:13;;;;;;;13.95;3.10;;;8.10;99.90;;;;;;5113966;28;20085;-68
2023/12/30 06:23:38;;;;;;;16.88;2.63;;;8.20;99.90;;;;;;5110959;28;20027;-69
2023/12/30 06:26:04;;;;;;;17.83;2.72;;;8.10;99.90;;;;;;5093141;28;20385;-69
2023/12/30 06:28:30;;;;;;;19.67;2.88;;;8.10;99.90;;;;;;5110938;28;20055;-67
2023/12/30 06:30:55;;;;;;;14.35;2.60;;;8.10;99.90;;;;;;5098920;28;20363;-68
2023/12/30 06:33:22;;;;;;;10.75;2.25;;;8.20;99.90;;;;;;5113771;28;20034;-69
2023/12/30 06:35:48;;;;;;;13.30;2.30;;;8.20;99.90;;;;;;5113853;28;20028;-69
2023/12/30 06:38:15;;;;;;;17.15;2.83;;;8.20;99.90;;;;;;5113331;28;20046;-69
2023/12/30 06:40:45;;;;;;;15.13;2.55;;;8.20;99.90;;;;;;5113613;28;20111;-68
2023/12/30 06:43:11;;;;;;;17.33;2.65;;;8.20;99.90;;;;;;5110519;28;20070;-69
2023/12/30 06:45:37;;;;;;;15.52;2.67;;;8.20;99.90;;;;;;5110054;28;20032;-68
2023/12/30 06:48:03;;;;;;;16.67;3.03;;;8.20;99.90;;;;;;5113262;28;20575;-68
2023/12/30 06:50:29;;;;;;;13.98;2.42;;;8.20;99.90;;;;;;5113669;28;20031;-68
2023/12/30 06:52:55;;;;;;;14.88;2.83;;;8.10;99.90;;;;;;5112866;28;20393;-68
2023/12/30 06:55:21;;;;;;;10.43;2.15;;;8.10;99.90;;;;;;5113196;28;20465;-68
2023/12/30 06:57:47;;;;;;;11.80;2.78;;;8.10;99.90;;;;;;5096150;28;20082;-68
2023/12/30 07:00:13;;;;;;;12.95;2.35;;;8.00;99.90;;;;;;5092889;28;20026;-69
2023/12/30 07:02:40;;;;;;;10.95;2.28;;;8.00;99.90;;;;;;5092992;28;20473;-68
2023/12/30 07:05:06;;;;;;;11.38;2.33;;;8.00;99.90;;;;;;5092803;28;20024;-68
2023/12/30 07:07:32;;;;;;;10.88;2.00;;;8.00;99.90;;;;;;5093167;28;20055;-68
2023/12/30 07:09:57;;;;;;;13.82;2.75;;;8.00;99.90;;;;;;5098619;28;20476;-69
2023/12/30 07:12:23;;;;;;;11.10;2.17;;;7.90;99.90;;;;;;5109880;28;20031;-68
2023/12/30 07:14:48;;;;;;;16.45;3.55;;;8.00;99.90;;;;;;5112954;28;20055;-68
2023/12/30 07:17:15;;;;;;;12.60;2.47;;;8.00;99.90;;;;;;5113321;28;20069;-69
2023/12/30 07:19:41;;;;;;;14.18;2.53;;;8.00;99.90;;;;;;5113195;28;20027;-69
2023/12/30 07:22:07;;;;;;;17.13;3.15;;;8.00;99.90;;;;;;5111962;28;20028;-69
2023/12/30 07:24:32;;;;;;;14.88;3.00;;;8.00;99.90;;;;;;5091722;28;20480;-69
2023/12/30 07:26:58;;;;;;;18.90;2.70;;;8.00;99.90;;;;;;5111447;28;20404;-68
2023/12/30 07:29:24;;;;;;;14.30;2.53;;;8.00;99.90;;;;;;5113245;28;20471;-68
2023/12/30 07:31:50;;;;;;;13.93;2.58;;;8.00;99.90;;;;;;5112836;28;20024;-68
2023/12/30 07:34:17;;;;;;;21.02;3.28;;;8.00;99.90;;;;;;5112879;28;20361;-68
2023/12/30 07:36:43;;;;;;;13.48;2.85;;;8.00;99.90;;;;;;5112541;28;20032;-68
2023/12/30 07:39:08;;;;;;;15.32;2.80;;;8.00;99.90;;;;;;5112612;28;20024;-68
2023/12/30 07:41:34;;;;;;;12.20;2.25;;;8.00;99.90;;;;;;5111383;28;20030;-68
2023/12/30 07:43:59;;;;;;;18.50;3.08;;;7.90;99.90;;;;;;5111692;28;20020;-68
2023/12/30 07:46:25;;;;;;;13.40;2.70;;;8.00;99.90;;;;;;5112756;28;20028;-68
2023/12/30 07:48:51;;;;;;;15.90;2.67;;;8.00;99.90;;;;;;5112044;28;20031;-69
2023/12/30 07:51:16;;;;;;;13.48;2.60;;;8.00;99.90;;;;;;5104839;28;20039;-68
2023/12/30 07:53:42;;;;;;;17.35;2.92;;;8.00;99.90;;;;;;5112258;28;20035;-68
2023/12/30 07:56:08;;;;;;;17.50;3.08;;;8.00;99.90;;;;;;5112078;28;20362;-68
2023/12/30 07:58:34;;;;;;;16.52;3.00;;;8.00;99.90;;;;;;5112007;28;20149;-69
2023/12/30 08:01:00;;;;;;;11.05;2.92;;;8.00;99.90;;;;;;5092760;28;20350;-70
2023/12/30 08:03:25;;;;;;;10.25;2.53;;;8.10;99.90;;;;;;5113002;28;20047;-69
2023/12/30 08:05:51;;;;;;;11.30;2.58;;;8.10;99.90;;;;;;5108788;28;20098;-68
2023/12/30 08:08:16;;;;;;;12.85;3.13;;;8.10;99.90;;;;;;5095807;28;20385;-69
2023/12/30 08:10:42;;;;;;;19.50;2.85;;;8.10;99.90;;;;;;5108659;28;20374;-68
2023/12/30 08:13:08;;;;;;;18.40;3.00;;;8.10;99.90;;;;;;5100609;28;20517;-68
2023/12/30 08:15:33;;;;;;;20.38;3.47;;;8.20;99.90;;;;;;5109577;28;20334;-69
2023/12/30 08:17:59;;;;;;;18.63;3.47;;;8.20;99.90;;;;;;5116246;28;20055;-70
2023/12/30 08:20:24;;;;;;;14.98;3.20;;;8.20;99.90;;;;;;5115907;28;20374;-68
2023/12/30 08:22:50;;;;;;;18.70;3.33;;;8.20;99.90;;;;;;5116265;28;20419;-69
2023/12/30 08:25:16;;;;;;;13.98;3.03;;;8.30;99.90;;;;;;5115143;28;20525;-68
2023/12/30 08:27:42;;;;;;;15.93;2.63;;;8.40;99.90;;;;;;5096083;28;20047;-69
2023/12/30 08:30:09;;;;;;;15.45;2.55;;;8.40;99.90;;;;;;5108550;28;20027;-69
2023/12/30 08:32:35;;;;;;;18.45;3.72;;;8.50;99.90;;;;;;5110853;28;20050;-69
2023/12/30 08:35:02;;;;;;;16.02;2.72;;;8.50;99.90;;;;;;5115342;28;20051;-69
2023/12/30 08:37:29;;;;;;;16.30;2.95;;;8.60;99.90;;;;;;5112310;28;20027;-67
2023/12/30 08:39:54;;;;;;;16.52;2.95;;;8.70;99.90;;;;;;5115449;28;20020;-68
2023/12/30 08:42:21;;;;;;;19.55;3.10;;;8.70;99.90;;;;;;5114960;28;20426;-70
2023/12/30 08:44:47;;;;;;;18.92;3.67;;;8.80;99.90;;;;;;5114068;28;20076;-68
2023/12/30 08:47:15;;;;;;;17.55;3.22;;;8.90;99.90;;;;;;5094988;28;20039;-69
2023/12/30 08:49:40;;;;;;;16.50;3.10;;;9.00;99.90;;;;;;5112907;28;20087;-69
2023/12/30 08:52:07;;;;;;;15.02;2.85;;;9.10;99.90;;;;;;5109707;28;20433;-70
2023/12/30 08:54:33;;;;;;;19.95;3.30;;;9.10;99.90;;;;;;5112695;28;20480;-68
2023/12/30 08:56:59;;;;;;;15.85;2.88;;;9.10;99.90;;;;;;5095917;28;20103;-68
2023/12/30 08:59:24;;;;;;;14.25;2.50;;;9.20;99.90;;;;;;5113518;28;20024;-69
2023/12/30 09:01:51;;;;;;;17.50;3.20;;;9.20;99.90;;;;;;5110502;28;20040;-69
2023/12/30 09:04:18;;;;;;;17.55;2.90;;;9.30;99.90;;;;;;5115310;28;20028;-70
2023/12/30 09:06:43;;;;;;;22.35;3.67;;;9.30;99.90;;;;;;5091951;28;20103;-69
2023/12/30 09:09:11;;;;;;;11.13;2.20;;;9.40;99.90;;;;;;5095977;28;20165;-68
2023/12/30 09:11:38;;;;;;;14.88;2.80;;;9.50;99.90;;;;;;5114307;27;20028;-69
2023/12/30 09:14:06;;;;;;;19.45;3.63;;;9.60;99.90;;;;;;5121708;27;20107;-68
2023/12/30 09:16:33;;;;;;;15.13;2.33;;;9.60;99.90;;;;;;5123031;27;20023;-68
2023/12/30 09:18:58;;;;;;;14.27;2.85;;;9.70;99.90;;;;;;5115969;27;20131;-69
2023/12/30 09:21:24;;;;;;;17.35;3.47;;;9.80;99.90;;;;;;5107509;27;20173;-69
2023/12/30 09:23:53;;;;;;;12.13;2.92;;;9.80;99.90;;;;;;5129409;27;20573;-69
2023/12/30 09:26:19;;;;;;;15.38;2.60;;;9.80;99.90;;;;;;5120350;27;20024;-69
2023/12/30 09:28:44;;;;;;;19.05;3.13;;;9.90;99.90;;;;;;5110739;27;20030;-69
2023/12/30 09:31:10;;;;;;;18.30;3.63;;;9.90;99.90;;;;;;5114389;27;20031;-69
2023/12/30 09:33:36;;;;;;;19.50;3.33;;;10.00;99.90;;;;;;5116965;27;20386;-69
2023/12/30 09:36:02;;;;;;;16.90;3.05;;;10.10;99.90;;;;;;5114484;27;20089;-69
2023/12/30 09:38:28;;;;;;;14.25;3.25;;;10.20;99.90;;;;;;5118016;27;20022;-70
2023/12/30 09:40:54;;;;;;;11.20;2.58;;;10.30;99.90;;;;;;5115640;27;20028;-68
2023/12/30 09:43:25;;;;;;;16.65;2.45;;;10.40;99.90;;;;;;5111534;28;20024;-69
2023/12/30 09:45:52;;;;;;;20.55;2.80;;;10.50;99.90;;;;;;5115287;27;20062;-69
2023/12/30 09:48:26;;;;;;;14.25;2.67;;;10.50;99.90;;;;;;5111127;28;20031;-69
2023/12/30 09:50:53;;;;;;;17.65;3.58;;;10.60;99.90;;;;;;5113565;28;20027;-69
2023/12/30 09:53:22;;;;;;;17.83;2.80;;;10.60;99.90;;;;;;5111126;28;20020;-69
2023/12/30 09:55:52;;;;;;;17.65;2.80;;;10.70;99.90;;;;;;5113773;28;20027;-69
2023/12/30 09:58:19;;;;;;;16.10;3.03;;;10.70;99.90;;;;;;5113191;28;20543;-69
2023/12/30 10:00:45;;;;;;;19.77;2.97;;;10.80;99.90;;;;;;5095741;28;20366;-70
2023/12/30 10:03:12;;;;;;;14.48;2.78;;;10.90;99.90;;;;;;5111958;28;20188;-68
2023/12/30 10:05:38;;;;;;;16.95;2.88;;;11.00;99.90;;;;;;5113489;28;20026;-69
2023/12/30 10:08:04;;;;;;;22.95;3.20;;;11.00;99.90;;;;;;5113181;28;20134;-69
2023/12/30 10:10:44;;;;;;;17.50;3.17;;;11.00;99.90;;;;;;5112227;28;20065;-69
2023/12/30 10:13:11;;;;;;;14.80;2.70;;;11.00;99.90;;;;;;5111841;28;20051;-69
2023/12/30 10:15:37;;;;;;;14.90;2.92;;;11.00;99.90;;;;;;5113574;28;20106;-69
2023/12/30 10:18:04;;;;;;;19.20;3.50;;;11.10;99.90;;;;;;5112692;28;20476;-69
2023/12/30 10:20:30;;;;;;;16.83;3.38;;;11.10;99.90;;;;;;5092948;28;20034;-69
2023/12/30 10:22:56;;;;;;;28.45;4.80;;;11.00;99.90;;;;;;5113296;28;20023;-68
2023/12/30 10:25:21;;;;;;;18.67;3.92;;;11.00;99.90;;;;;;5112941;28;20031;-69
2023/12/30 10:27:48;;;;;;;25.85;4.32;;;11.00;99.90;;;;;;5106354;28;20039;-68
2023/12/30 10:30:17;;;;;;;18.60;3.72;;;11.00;99.90;;;;;;5113521;28;20461;-68
2023/12/30 10:32:43;;;;;;;24.85;3.83;;;11.00;99.90;;;;;;5113403;28;20073;-69
2023/12/30 10:35:08;;;;;;;14.35;3.17;;;11.00;99.90;;;;;;5113469;28;20023;-69
2023/12/30 10:37:35;;;;;;;21.60;3.65;;;11.00;99.90;;;;;;5106631;28;20118;-70
2023/12/30 10:40:03;;;;;;;17.60;3.72;;;11.00;99.90;;;;;;5108011;28;20050;-70
2023/12/30 10:42:28;;;;;;;24.17;4.22;;;10.90;99.90;;;;;;5113073;28;20031;-69
2023/12/30 10:44:54;;;;;;;18.73;3.92;;;10.90;99.90;;;;;;5111625;28;20076;-69
2023/12/30 10:47:21;;;;;;;26.60;3.95;;;10.80;99.90;;;;;;5122418;27;20431;-69
2023/12/30 10:49:52;;;;;;;25.95;4.85;;;10.80;99.90;;;;;;5113013;28;20031;-69
2023/12/30 10:52:23;;;;;;;18.98;3.67;;;10.90;99.90;;;;;;5113170;28;20027;-69
2023/12/30 10:54:58;;;;;;;14.65;3.80;;;10.90;99.90;;;;;;5087992;28;20058;-70
2023/12/30 10:57:29;;;;;;;21.13;4.03;;;10.90;99.90;;;;;;5113328;28;20024;-69
2023/12/30 10:59:58;;;;;;;19.95;3.58;;;11.00;99.90;;;;;;5112671;28;20027;-69
2023/12/30 11:02:24;;;;;;;19.48;3.95;;;11.20;99.90;;;;;;5094248;28;20392;-69
2023/12/30 11:04:56;;;;;;;21.08;3.70;;;11.20;99.90;;;;;;5112551;28;20481;-70
2023/12/30 11:07:24;;;;;;;20.25;3.33;;;11.20;99.90;;;;;;5113004;28;20046;-69
2023/12/30 11:09:49;;;;;;;16.90;3.78;;;11.20;99.90;;;;;;5112539;28;20381;-70
2023/12/30 11:12:15;;;;;;;20.85;3.78;;;11.20;99.90;;;;;;5100285;28;20020;-70
2023/12/30 11:14:40;;;;;;;18.50;4.22;;;11.20;99.90;;;;;;5108884;28;20020;-69
2023/12/30 11:17:06;;;;;;;18.63;3.10;;;11.20;99.90;;;;;;5099216;28;20377;-70
2023/12/30 11:19:32;;;;;;;19.38;3.50;;;11.20;99.90;;;;;;5095798;28;20491;-70
2023/12/30 11:22:05;;;;;;;21.35;3.70;;;11.10;99.90;;;;;;5102520;28;20488;-69
2023/12/30 11:24:30;;;;;;;17.83;3.63;;;11.10;99.90;;;;;;5105371;28;20042;-69
2023/12/30 11:26:56;;;;;;;17.77;4.03;;;11.10;99.90;;;;;;5110372;28;20040;-69
2023/12/30 11:29:26;;;;;;;18.42;4.32;;;11.00;99.90;;;;;;5105509;28;20035;-69
2023/12/30 11:31:54;;;;;;;15.88;3.45;;;11.00;99.90;;;;;;5109885;28;20043;-68
2023/12/30 11:34:20;;;;;;;20.77;3.58;;;10.90;99.90;;;;;;5112398;28;20107;-69
2023/12/30 11:36:49;;;;;;;19.65;3.42;;;11.00;99.90;;;;;;5111875;28;20483;-70
2023/12/30 11:39:24;;;;;;;23.55;4.47;;;11.00;99.90;;;;;;5096766;28;20107;-68
2023/12/30 11:41:53;;;;;;;21.23;3.83;;;11.00;99.90;;;;;;5116800;28;20015;-69
2023/12/30 11:44:19;;;;;;;21.83;3.92;;;11.00;99.90;;;;;;5116309;28;20044;-68
2023/12/30 11:46:45;;;;;;;21.67;3.92;;;11.00;99.90;;;;;;5100240;28;20043;-69
2023/12/30 11:49:17;;;;;;;18.10;4.15;;;11.00;99.90;;;;;;5116244;28;20024;-70
2023/12/30 11:51:43;;;;;;;22.15;4.18;;;11.10;99.90;;;;;;5116708;28;20039;-68
2023/12/30 11:54:08;;;;;;;19.70;4.82;;;11.10;99.90;;;;;;5116253;28;20024;-70
2023/12/30 11:56:34;;;;;;;16.05;3.53;;;11.10;99.90;;;;;;5115561;28;20066;-69
2023/12/30 11:59:00;;;;;;;15.32;3.65;;;11.20;99.90;;;;;;5112108;28;20071;-70
2023/12/30 12:01:26;;;;;;;19.52;4.43;;;11.10;99.90;;;;;;5108940;28;20016;-70
2023/12/30 12:03:52;;;;;;;15.57;4.50;;;11.20;99.90;;;;;;5107842;28;20047;-69
2023/12/30 12:06:18;;;;;;;22.45;3.72;;;11.40;99.90;;;;;;5097148;28;20038;-71
2023/12/30 12:08:44;;;;;;;22.90;4.10;;;11.50;99.90;;;;;;5115528;28;20386;-70
2023/12/30 12:11:09;;;;;;;18.13;3.67;;;11.60;99.90;;;;;;5116227;28;20023;-68
2023/12/30 12:13:35;;;;;;;20.38;4.20;;;11.60;99.90;;;;;;5114029;28;20370;-70
2023/12/30 12:16:01;;;;;;;18.52;3.60;;;11.60;99.90;;;;;;5115822;28;20032;-70
2023/12/30 12:18:26;;;;;;;14.32;3.13;;;11.60;99.90;;;;;;5115758;28;20027;-68
2023/12/30 12:20:53;;;;;;;19.65;3.47;;;11.40;99.90;;;;;;5115238;28;20027;-70
2023/12/30 12:23:23;;;;;;;20.85;4.32;;;11.30;99.90;;;;;;5114800;28;20031;-70
2023/12/30 12:25:49;;;;;;;19.27;3.90;;;11.20;99.90;;;;;;5114828;28;20027;-70
2023/12/30 12:28:17;;;;;;;21.20;3.90;;;11.10;99.90;;;;;;5115981;28;20027;-69
2023/12/30 12:30:44;;;;;;;21.92;4.53;;;11.00;99.90;;;;;;5115146;28;20016;-70
2023/12/30 12:33:12;;;;;;;24.83;4.38;;;10.90;99.90;;;;;;5080235;28;20050;-73
2023/12/30 12:35:38;;;;;;;19.00;4.32;;;10.80;99.90;;;;;;5115109;28;20094;-69
2023/12/30 12:38:04;;;;;;;22.58;4.90;;;10.80;99.90;;;;;;5106924;28;20433;-70
2023/12/30 12:40:29;;;;;;;20.65;5.55;;;10.60;99.90;;;;;;5113399;28;20102;-68